Historyczne dane pomiarowe

Dodano dane terminowe – wersja testowa.

Dane z okresu 1951-2019

Wersja bazy: 1.34 [2019-03-16, lista zmian], aktualizacja planowana na 2019-04-15

Dane meteo z obszaru Polski uzyskane na podstawie danych udostępnionych przez Instytut Meteorologii i Gospodarki Wodnej – Państwowy Instytut Badawczy.

 

Wybierz Datę:    

       

TemperaturaWilgotnośćWiatrCiśnienieOpadyŚniegCzas trwania zjawisk
 Stacja t tx tn tng RH VA  wxwx mslp ppp RRR   cm mm wxwxwxwxwxwxwx
2010-02-25 6.2 10.3 3.6--- 5.7----- 0.0--x---------
2010-02-26 6.1 7.4 5.2--- 6.3----- 0.0------------
2010-02-27 4.5 7.6 2.4--- 6.0----- 0.0------------
2010-02-28 5.6 7.2 4.6--- 5.7----- 0.0------------
2010-03-01 4.4 6.0 3.4--- 7.0----- 0.6------------
2010-03-02 3.1 5.8 1.8--- 7.3----- 0.2------------
2010-03-03 0.5 3.4 -1.2--- 7.3----- 0.6------------
2010-03-04 -2.1 2.6 -5.4--- 7.7----- 1.2------------
2010-03-05 -5.1 -0.8 -6.8--- 7.7----- 0.6-- 3---------
2010-03-06 -5.5 -1.7 -7.8--- 7.3----- 0.0-- 3---------
2010-03-07 -5.5 -1.1 -9.8--- 7.3----- 0.8------------
2010-03-08 -3.3 0.0 -4.9--- 7.3----- 0.6-- 2---------
2010-03-09 -7.3 0.0-12.8--- 6.7----- 0.0--x---------
2010-03-10 -6.4 3.8-11.4--- 6.0----- 0.0--x---------
2010-03-11 -5.5 -1.3 -9.4--- 6.0----- 0.0--x---------
2010-03-12 -3.9 0.2 -7.6--- 7.3----- 1.4------------
2010-03-13 0.5 1.2 -0.4--- 7.7----- 2.6------------
2010-03-14 0.8 3.2 -1.0--- 7.3----- 9.4------------
2010-03-15 -0.4 1.6 -1.9--- 7.7----- 2.6-- 20---------
2010-03-16 0.8 1.8 0.0--- 7.3----- 0.2-- 5---------
2010-03-17 2.5 5.8 0.2--- 6.0----- 0.0-- 4---------
2010-03-18 6.4 12.0 1.6--- 5.0----- 0.0--x---------
2010-03-19 9.6 13.8 6.6--- 5.3----- 0.0------------
2010-03-20 10.7 14.3 9.0--- 5.7----- 0.6------------
2010-03-21 11.9 15.3 9.2--- 7.7----- 4.5------------
2010-03-22 5.3 12.2 2.6--- 6.3----- 0.0------------
2010-03-23 5.3 14.3 -0.5--- 6.7----- 0.0------------
2010-03-24 7.0 16.7 -1.5--- 6.3----- 0.0------------
2010-03-25 14.9 19.6 11.0--- 6.0----- 0.0------------
2010-03-26 14.6 19.4 11.8--- 7.3----- 3.8------------
130.4 ms

 

Źródłem pochodzenia danych jest Instytut Meteorologii i Gospodarki Wodnej – Państwowy Instytut Badawczy. Dane Instytutu Meteorologii i Gospodarki Wodnej – Państwowego Instytutu Badawczego zostały przetworzone.

Dane źródłowe można odnaleźć na stronie https://dane.imgw.pl